Aviation Digital Data Service (ADDS)

Output produced by METARs form (0817 UTC 19 April 2019)
found at http://www.aviationweather.gov/metar/data/
 
METAR text: RODN 190756Z AUTO 12005KT 10SM CLR 23/17 A2989 RMK AO2 SLP128 T02320169 $
Conditions at: RODN (KADENA (USAFB-NA, JP) observed 0756 UTC 19 April 2019
Temperature: 23.2°C (74°F)
Dewpoint: 16.9°C (62°F) [RH = 68%]
Pressure (altimeter): 29.89 inches Hg (1012.3 mb)
[Sea-level pressure: 1012.8 mb]
Winds: from the ESE (120 degrees) at 6 MPH (5 knots; 2.6 m/s)
Visibility: 10 or more miles (16+ km)
Ceiling: at least 12,000 feet AGL
Clouds: sky clear below 12,000 feet AGL
Weather:
SOME DATA ABOVE MAY BE INACCURATE!!!
"$" is an indication the sensor requires maintenance

Forecast for: RODN (KADENA (USAFB-NA, JP)
Text: TAF RODN 190800Z 1908/2014 14009KT 9999 FEW030 BKN200 QNH2986INS
Forecast period: 0800 UTC 19 April 2019 to 0100 UTC 20 April 2019
Forecast type: FROM: standard forecast or significant change
Winds: from the SE (140 degrees) at 10 MPH (9 knots; 4.6 m/s)
Visibility: 6 or more miles 10+ km)
Ceiling: 20000 feet AGL
Clouds: few clouds at 3000 feet AGL
broken clouds at 20000 feet AGL
Weather: no significant weather forecast for this period
Text: BECMG 2001/2002 12012G18KT 9999 VCSH BKN025 QNH2983INS
Forecast period: 0100 to 0800 UTC 20 April 2019
Forecast type: BECOMING: Conditions expected to become as follows by 0200 UTC 20 April 2019
Winds: from the ESE (120 degrees) at 14 MPH (12 knots; 6.2 m/s)
gusting to 21 MPH (18 knots; 9.3 m/s)
Visibility: 6 or more miles 10+ km)
Ceiling: 2500 feet AGL
Clouds: broken clouds at 2500 feet AGL
Weather: VCSH  (showers in vicinity)
Text: BECMG 2008/2009 12012G18KT 8000 -SHRA BKN015 QNH2981INS TX27/2006Z TN15/1921Z
Forecast period: 0800 to 1400 UTC 20 April 2019
Forecast type: BECOMING: Conditions expected to become as follows by 0900 UTC 20 April 2019
Winds: from the ESE (120 degrees) at 14 MPH (12 knots; 6.2 m/s)
gusting to 21 MPH (18 knots; 9.3 m/s)
Visibility: 5 miles (8 km)
Ceiling: 1500 feet AGL
Clouds: broken clouds at 1500 feet AGL
Weather: -SHRA  (light rain showers)

METAR text: ROTM 190656Z 11008KT 9999 BKN030 BKN100 25/17 A2991 RMK SLP116 T02460171
Conditions at: ROTM (FUTENMA(US-MCAS), JP) observed 0656 UTC 19 April 2019
Temperature: 24.6°C (76°F)
Dewpoint: 17.1°C (63°F) [RH = 63%]
Pressure (altimeter): 29.91 inches Hg (1013.0 mb)
[Sea-level pressure: 1011.6 mb]
Winds: from the ESE (110 degrees) at 9 MPH (8 knots; 4.1 m/s)
Visibility: 6 or more miles (10+ km)
Ceiling: 3000 feet AGL
Clouds: broken clouds at 3000 feet AGL
broken clouds at 10000 feet AGL
Weather: no significant weather observed at this time

Forecast for: ROTM (FUTENMA(US-MCAS), JP)
Text: TAF ROTM 1903/2003 14010KT 9999 SCT030 BKN100 QNH2990INS
Forecast period: 0300 to 1400 UTC 19 April 2019
Forecast type: FROM: standard forecast or significant change
Winds: from the SE (140 degrees) at 12 MPH (10 knots; 5.1 m/s)
Visibility: 6 or more miles 10+ km)
Ceiling: 10000 feet AGL
Clouds: scattered clouds at 3000 feet AGL
broken clouds at 10000 feet AGL
Weather: no significant weather forecast for this period
Text: BECMG 1914/1916 10012KT 9999 BKN030 QNH2988INS T26/1904Z T17/1918Z
Forecast period: 1400 UTC 19 April 2019 to 0300 UTC 20 April 2019
Forecast type: BECOMING: Conditions expected to become as follows by 1600 UTC 19 April 2019
Winds: from the E (100 degrees) at 14 MPH (12 knots; 6.2 m/s)
Visibility: 6 or more miles 10+ km)
Ceiling: 3000 feet AGL
Clouds: broken clouds at 3000 feet AGL
Weather: no significant weather forecast for this period

METAR text: ROAH 190800Z 13007KT 9999 FEW025 BKN/// 24/17 Q1011
Conditions at: ROAH (NAHA (CIV/JASDF), JP) observed 0800 UTC 19 April 2019
Temperature: 24.0°C (75°F)
Dewpoint: 17.0°C (63°F) [RH = 65%]
Pressure (altimeter): 29.85 inches Hg (1011.0 mb)
Winds: from the SE (130 degrees) at 8 MPH (7 knots; 3.6 m/s)
Visibility: 6 or more miles (10+ km)
Ceiling: at least 12,000 feet AGL
Clouds: few clouds at 2500 feet AGL
Weather: no significant weather observed at this time

Forecast for: ROAH (NAHA (CIV/JASDF), JP)
Text: TAF ROAH 190506Z 1906/2012 12005KT 9999 FEW025
Forecast period: 0600 UTC 19 April 2019 to 1200 UTC 20 April 2019
Forecast type: FROM: standard forecast or significant change
Winds: from the ESE (120 degrees) at 6 MPH (5 knots; 2.6 m/s)
Visibility: 6 or more miles 10+ km)
Ceiling: at least 12,000 feet AGL
Clouds: few clouds at 2500 feet AGL
Weather: no significant weather forecast for this period